This is the latest recevied weather packets stored in our database for station/object WX6YYZ. If no packets are shown the sender has not sent any weather packets the latest 10 day(s).
| Time | Temp. | Humidity | Pressure | Rain* | Wind** | Luminosity | Snow |
|---|---|---|---|---|---|---|---|
| 1777948511 | 15° C | 68% | 1014.9 hPa | 0 mm | - | - | - |
| 1777946701 | 15.56° C | 65% | 1014.6 hPa | 0 mm | - | - | - |
| 1777944896 | 16.11° C | 63% | 1014.6 hPa | 0 mm | - | - | - |
| 1777943692 | 16.67° C | 60% | 1014.6 hPa | 0 mm | - | - | - |
| 1777942426 | 16.67° C | 59% | 1014.9 hPa | 0 mm | - | - | - |
| 1777941824 | 16.67° C | 59% | 1014.9 hPa | 0 mm | - | - | - |
| 1777937245 | 17.78° C | 55% | 1014.6 hPa | 0 mm | - | - | - |
| 1777935947 | 18.89° C | 53% | 1014.2 hPa | 0 mm | - | - | - |
| 1777935646 | 19.44° C | 50% | 1014.2 hPa | 0 mm | - | - | - |
| 1777934443 | 19.44° C | 51% | 1014.6 hPa | 0 mm | - | - | - |
| 1777933841 | 19.44° C | 51% | 1014.6 hPa | 0 mm | - | - | - |
| 1777932034 | 19.44° C | 49% | 1014.9 hPa | 0 mm | - | - | - |
| 1777930229 | 19.44° C | 49% | 1015.6 hPa | 0 mm | - | - | - |
| 1777929627 | 20° C | 49% | 1015.6 hPa | 0 mm | - | - | - |
| 1777927821 | 18.33° C | 52% | 1015.6 hPa | 0 mm | - | - | - |
| 1777926222 | 16.67° C | 56% | 1016.3 hPa | 0 mm | - | - | - |
| 1777925921 | 17.22° C | 55% | 1015.9 hPa | 0 mm | - | - | - |
| 1777924987 | 17.22° C | 53% | 1015.9 hPa | 0 mm | - | - | - |
| 1777921610 | 17.78° C | 50% | 1016.3 hPa | 0 mm | - | - | - |
| 1777920041 | 17.22° C | 54% | 1015.9 hPa | 0 mm | - | - | - |
| 1777919138 | 17.22° C | 56% | 1016.3 hPa | 0 mm | - | - | - |
| 1777917634 | 17.22° C | 58% | 1016.3 hPa | 0 mm | - | - | - |
| 1777917302 | 17.78° C | 56% | 1016.3 hPa | 0 mm | - | - | - |
| 1777916399 | 17.22° C | 60% | 1016.3 hPa | 0 mm | - | - | - |
| 1777914861 | 16.67° C | 60% | 1015.9 hPa | 0 mm | - | - | - |
* Rain latest hour (hover to see other rain measurements)
** Current wind speed in m/s (hover to see current wind gust speed)